< < Back
Terminal Aerodrome Forecast


Current Version              Previous Versions:   1  2  3  4  5  6  7  8  9  

Terminal Aerodrome Forecast

765
FTUS42 KGSP 271740
TAFHKY
TAF
KHKY 271740Z 2718/2818 20007KT P6SM SCT020 BKN040
      TEMPO 2718/2720 BKN020 BKN040
     FM272100 20003KT P6SM VCSH BKN035
     FM280500 00000KT P6SM BKN250
     FM280800 00000KT 5SM BR BKN250
     FM281300 00000KT P6SM BKN250=

Latest METAR

280
SAUS70 KWBC 280000 RRC
MTRHKY
METAR KHKY 272353Z AUTO 19005KT 10SM CLR 25/18 A3019 RMK AO2 SLP204
T02500178 10278 20239 55002


USA.gov is the U.S. government's official web portal to all federal, state and local government web resources and services.